sensor_id;sensor_type;location;lat;lon;timestamp;P1;durP1;ratioP1;P2;durP2;ratioP2
38083;SDS011;23894;51.466;7.444;2022-10-16T00:00:52;5.93;;;2.60;;
38083;SDS011;23894;51.466;7.444;2022-10-16T00:02:54;6.45;;;2.40;;
38083;SDS011;23894;51.466;7.444;2022-10-16T00:04:57;5.55;;;2.20;;
38083;SDS011;23894;51.466;7.444;2022-10-16T00:07:00;6.65;;;2.50;;
38083;SDS011;23894;51.466;7.444;2022-10-16T00:09:02;6.55;;;2.40;;
38083;SDS011;23894;51.466;7.444;2022-10-16T00:11:07;5.18;;;2.20;;
38083;SDS011;23894;51.466;7.444;2022-10-16T00:13:09;6.35;;;2.33;;
38083;SDS011;23894;51.466;7.444;2022-10-16T00:15:10;5.47;;;2.35;;
38083;SDS011;23894;51.466;7.444;2022-10-16T00:19:11;6.85;;;2.70;;
38083;SDS011;23894;51.466;7.444;2022-10-16T00:23:13;8.15;;;2.75;;
38083;SDS011;23894;51.466;7.444;2022-10-16T00:27:16;5.88;;;1.98;;
38083;SDS011;23894;51.466;7.444;2022-10-16T00:29:17;5.28;;;1.90;;
38083;SDS011;23894;51.466;7.444;2022-10-16T00:33:19;5.80;;;2.22;;
38083;SDS011;23894;51.466;7.444;2022-10-16T00:35:20;6.03;;;1.98;;
38083;SDS011;23894;51.466;7.444;2022-10-16T00:37:21;5.65;;;2.40;;
38083;SDS011;23894;51.466;7.444;2022-10-16T00:41:25;5.88;;;2.40;;
38083;SDS011;23894;51.466;7.444;2022-10-16T00:45:36;8.00;;;2.38;;
38083;SDS011;23894;51.466;7.444;2022-10-16T00:49:38;5.90;;;2.17;;
38083;SDS011;23894;51.466;7.444;2022-10-16T00:51:43;6.45;;;2.17;;
38083;SDS011;23894;51.466;7.444;2022-10-16T00:53:44;6.85;;;2.50;;
38083;SDS011;23894;51.466;7.444;2022-10-16T00:55:45;5.40;;;2.20;;
38083;SDS011;23894;51.466;7.444;2022-10-16T00:59:47;5.40;;;1.92;;
38083;SDS011;23894;51.466;7.444;2022-10-16T01:01:49;6.88;;;1.95;;
38083;SDS011;23894;51.466;7.444;2022-10-16T01:03:49;8.02;;;2.08;;
38083;SDS011;23894;51.466;7.444;2022-10-16T01:08:12;5.15;;;1.88;;
38083;SDS011;23894;51.466;7.444;2022-10-16T01:12:36;6.43;;;1.98;;
38083;SDS011;23894;51.466;7.444;2022-10-16T01:17:17;5.35;;;1.77;;
38083;SDS011;23894;51.466;7.444;2022-10-16T01:21:31;5.05;;;1.80;;
38083;SDS011;23894;51.466;7.444;2022-10-16T01:25:56;5.25;;;1.85;;
38083;SDS011;23894;51.466;7.444;2022-10-16T01:27:58;7.13;;;2.20;;
38083;SDS011;23894;51.466;7.444;2022-10-16T01:30:07;4.75;;;2.10;;
38083;SDS011;23894;51.466;7.444;2022-10-16T01:32:15;4.63;;;1.95;;
38083;SDS011;23894;51.466;7.444;2022-10-16T01:34:25;7.43;;;2.00;;
38083;SDS011;23894;51.466;7.444;2022-10-16T01:36:39;4.65;;;1.95;;
38083;SDS011;23894;51.466;7.444;2022-10-16T01:38:41;7.32;;;2.00;;
38083;SDS011;23894;51.466;7.444;2022-10-16T01:40:46;6.00;;;2.10;;
38083;SDS011;23894;51.466;7.444;2022-10-16T01:43:00;5.63;;;2.08;;
38083;SDS011;23894;51.466;7.444;2022-10-16T01:45:02;5.65;;;2.08;;
38083;SDS011;23894;51.466;7.444;2022-10-16T01:47:07;5.50;;;1.92;;
38083;SDS011;23894;51.466;7.444;2022-10-16T01:49:09;6.10;;;2.20;;
38083;SDS011;23894;51.466;7.444;2022-10-16T01:51:14;4.70;;;2.08;;
38083;SDS011;23894;51.466;7.444;2022-10-16T01:53:15;5.13;;;2.28;;
38083;SDS011;23894;51.466;7.444;2022-10-16T01:57:17;4.43;;;1.92;;
38083;SDS011;23894;51.466;7.444;2022-10-16T01:59:20;6.28;;;2.20;;
38083;SDS011;23894;51.466;7.444;2022-10-16T02:01:22;6.43;;;2.17;;
38083;SDS011;23894;51.466;7.444;2022-10-16T02:03:24;5.53;;;2.00;;
38083;SDS011;23894;51.466;7.444;2022-10-16T02:05:26;4.95;;;2.00;;
38083;SDS011;23894;51.466;7.444;2022-10-16T02:07:29;4.97;;;1.90;;
38083;SDS011;23894;51.466;7.444;2022-10-16T02:11:31;7.93;;;2.00;;
38083;SDS011;23894;51.466;7.444;2022-10-16T02:15:33;6.68;;;2.33;;
38083;SDS011;23894;51.466;7.444;2022-10-16T02:19:34;6.72;;;2.30;;
38083;SDS011;23894;51.466;7.444;2022-10-16T02:21:55;5.60;;;2.10;;
38083;SDS011;23894;51.466;7.444;2022-10-16T02:26:18;5.15;;;2.10;;
38083;SDS011;23894;51.466;7.444;2022-10-16T02:28:23;6.68;;;2.28;;
38083;SDS011;23894;51.466;7.444;2022-10-16T02:30:27;4.35;;;2.03;;
38083;SDS011;23894;51.466;7.444;2022-10-16T02:32:30;8.68;;;2.15;;
38083;SDS011;23894;51.466;7.444;2022-10-16T02:34:31;4.88;;;2.20;;
38083;SDS011;23894;51.466;7.444;2022-10-16T02:36:33;5.20;;;2.30;;
38083;SDS011;23894;51.466;7.444;2022-10-16T02:38:36;6.18;;;2.50;;
38083;SDS011;23894;51.466;7.444;2022-10-16T02:40:37;8.40;;;2.30;;
38083;SDS011;23894;51.466;7.444;2022-10-16T02:42:38;5.78;;;2.17;;
38083;SDS011;23894;51.466;7.444;2022-10-16T02:44:40;4.63;;;2.15;;
38083;SDS011;23894;51.466;7.444;2022-10-16T02:46:41;6.75;;;2.40;;
38083;SDS011;23894;51.466;7.444;2022-10-16T02:48:42;6.93;;;2.47;;
38083;SDS011;23894;51.466;7.444;2022-10-16T02:52:44;7.00;;;2.13;;
38083;SDS011;23894;51.466;7.444;2022-10-16T02:56:46;6.07;;;2.13;;
38083;SDS011;23894;51.466;7.444;2022-10-16T02:58:47;4.15;;;2.08;;
38083;SDS011;23894;51.466;7.444;2022-10-16T03:02:49;4.78;;;2.10;;
38083;SDS011;23894;51.466;7.444;2022-10-16T03:06:51;3.55;;;1.80;;
38083;SDS011;23894;51.466;7.444;2022-10-16T03:10:53;4.68;;;1.98;;
38083;SDS011;23894;51.466;7.444;2022-10-16T03:12:54;5.32;;;2.17;;
38083;SDS011;23894;51.466;7.444;2022-10-16T03:18:57;6.32;;;1.92;;
38083;SDS011;23894;51.466;7.444;2022-10-16T03:22:59;6.38;;;2.03;;
38083;SDS011;23894;51.466;7.444;2022-10-16T03:25:02;5.75;;;1.88;;
38083;SDS011;23894;51.466;7.444;2022-10-16T03:29:04;3.78;;;1.70;;
38083;SDS011;23894;51.466;7.444;2022-10-16T03:31:06;3.85;;;1.60;;
38083;SDS011;23894;51.466;7.444;2022-10-16T03:33:08;4.32;;;1.80;;
38083;SDS011;23894;51.466;7.444;2022-10-16T03:35:09;4.50;;;1.70;;
38083;SDS011;23894;51.466;7.444;2022-10-16T03:37:10;7.05;;;1.92;;
38083;SDS011;23894;51.466;7.444;2022-10-16T03:41:12;5.63;;;1.98;;
38083;SDS011;23894;51.466;7.444;2022-10-16T03:45:14;4.55;;;1.77;;
38083;SDS011;23894;51.466;7.444;2022-10-16T03:49:20;4.00;;;1.50;;
38083;SDS011;23894;51.466;7.444;2022-10-16T03:51:21;3.78;;;1.40;;
38083;SDS011;23894;51.466;7.444;2022-10-16T03:55:23;3.72;;;1.77;;
38083;SDS011;23894;51.466;7.444;2022-10-16T03:59:25;4.22;;;1.40;;
38083;SDS011;23894;51.466;7.444;2022-10-16T04:01:26;4.05;;;1.60;;
38083;SDS011;23894;51.466;7.444;2022-10-16T04:05:28;3.78;;;1.40;;
38083;SDS011;23894;51.466;7.444;2022-10-16T04:07:29;3.80;;;1.40;;
38083;SDS011;23894;51.466;7.444;2022-10-16T04:11:31;4.90;;;1.30;;
38083;SDS011;23894;51.466;7.444;2022-10-16T04:13:32;3.20;;;1.40;;
38083;SDS011;23894;51.466;7.444;2022-10-16T04:15:33;4.95;;;1.42;;
38083;SDS011;23894;51.466;7.444;2022-10-16T04:19:35;4.43;;;1.42;;
38083;SDS011;23894;51.466;7.444;2022-10-16T04:21:36;4.13;;;1.40;;
38083;SDS011;23894;51.466;7.444;2022-10-16T04:23:37;3.30;;;1.30;;
38083;SDS011;23894;51.466;7.444;2022-10-16T04:25:38;4.20;;;1.30;;
38083;SDS011;23894;51.466;7.444;2022-10-16T04:29:40;4.22;;;1.52;;
38083;SDS011;23894;51.466;7.444;2022-10-16T04:31:41;3.58;;;1.33;;
38083;SDS011;23894;51.466;7.444;2022-10-16T04:35:43;2.85;;;1.20;;
38083;SDS011;23894;51.466;7.444;2022-10-16T04:39:44;3.58;;;1.20;;
38083;SDS011;23894;51.466;7.444;2022-10-16T04:41:46;4.32;;;1.58;;
38083;SDS011;23894;51.466;7.444;2022-10-16T04:45:48;3.78;;;1.50;;
38083;SDS011;23894;51.466;7.444;2022-10-16T04:47:50;4.78;;;1.20;;
38083;SDS011;23894;51.466;7.444;2022-10-16T04:49:51;2.78;;;1.30;;
38083;SDS011;23894;51.466;7.444;2022-10-16T04:51:52;5.25;;;1.20;;
38083;SDS011;23894;51.466;7.444;2022-10-16T04:55:55;4.35;;;1.40;;
38083;SDS011;23894;51.466;7.444;2022-10-16T04:57:57;5.40;;;1.50;;
38083;SDS011;23894;51.466;7.444;2022-10-16T04:59:58;3.22;;;1.38;;
38083;SDS011;23894;51.466;7.444;2022-10-16T05:01:58;3.70;;;1.23;;
38083;SDS011;23894;51.466;7.444;2022-10-16T05:04:00;5.32;;;1.48;;
38083;SDS011;23894;51.466;7.444;2022-10-16T05:06:01;6.70;;;1.60;;
38083;SDS011;23894;51.466;7.444;2022-10-16T05:08:04;4.45;;;1.48;;
38083;SDS011;23894;51.466;7.444;2022-10-16T05:10:05;5.20;;;1.45;;
38083;SDS011;23894;51.466;7.444;2022-10-16T05:12:06;4.72;;;1.40;;
38083;SDS011;23894;51.466;7.444;2022-10-16T05:14:07;2.55;;;1.17;;
38083;SDS011;23894;51.466;7.444;2022-10-16T05:18:09;2.97;;;1.30;;
38083;SDS011;23894;51.466;7.444;2022-10-16T05:22:11;5.63;;;1.70;;
38083;SDS011;23894;51.466;7.444;2022-10-16T05:26:13;5.20;;;1.52;;
38083;SDS011;23894;51.466;7.444;2022-10-16T05:28:14;5.88;;;1.65;;
38083;SDS011;23894;51.466;7.444;2022-10-16T05:30:15;4.88;;;1.70;;
38083;SDS011;23894;51.466;7.444;2022-10-16T05:32:17;3.35;;;1.25;;
38083;SDS011;23894;51.466;7.444;2022-10-16T05:34:19;4.82;;;1.60;;
38083;SDS011;23894;51.466;7.444;2022-10-16T05:36:20;3.30;;;1.58;;
38083;SDS011;23894;51.466;7.444;2022-10-16T05:40:22;3.00;;;1.40;;
38083;SDS011;23894;51.466;7.444;2022-10-16T05:42:23;4.50;;;1.40;;
38083;SDS011;23894;51.466;7.444;2022-10-16T05:44:24;4.25;;;1.50;;
38083;SDS011;23894;51.466;7.444;2022-10-16T05:46:25;3.90;;;1.40;;
38083;SDS011;23894;51.466;7.444;2022-10-16T05:50:27;6.15;;;1.40;;
38083;SDS011;23894;51.466;7.444;2022-10-16T05:52:28;4.28;;;1.48;;
38083;SDS011;23894;51.466;7.444;2022-10-16T05:54:29;3.97;;;1.55;;
38083;SDS011;23894;51.466;7.444;2022-10-16T05:58:32;4.57;;;1.52;;
38083;SDS011;23894;51.466;7.444;2022-10-16T06:00:33;3.95;;;1.40;;
38083;SDS011;23894;51.466;7.444;2022-10-16T06:02:34;3.53;;;1.40;;
38083;SDS011;23894;51.466;7.444;2022-10-16T06:04:35;4.38;;;1.40;;
38083;SDS011;23894;51.466;7.444;2022-10-16T06:08:38;3.95;;;1.30;;
38083;SDS011;23894;51.466;7.444;2022-10-16T06:10:39;4.28;;;1.48;;
38083;SDS011;23894;51.466;7.444;2022-10-16T06:12:40;6.20;;;1.80;;
38083;SDS011;23894;51.466;7.444;2022-10-16T06:16:42;4.15;;;1.50;;
38083;SDS011;23894;51.466;7.444;2022-10-16T06:20:43;3.92;;;1.50;;
38083;SDS011;23894;51.466;7.444;2022-10-16T06:22:44;5.45;;;1.75;;
38083;SDS011;23894;51.466;7.444;2022-10-16T06:24:45;4.10;;;1.40;;
38083;SDS011;23894;51.466;7.444;2022-10-16T06:26:47;2.97;;;1.38;;
38083;SDS011;23894;51.466;7.444;2022-10-16T06:28:48;5.03;;;1.50;;
38083;SDS011;23894;51.466;7.444;2022-10-16T06:30:58;3.40;;;1.33;;
38083;SDS011;23894;51.466;7.444;2022-10-16T06:32:59;5.07;;;1.55;;
38083;SDS011;23894;51.466;7.444;2022-10-16T06:35:00;3.65;;;1.35;;
38083;SDS011;23894;51.466;7.444;2022-10-16T06:39:02;3.30;;;1.40;;
38083;SDS011;23894;51.466;7.444;2022-10-16T06:41:04;5.93;;;1.70;;
38083;SDS011;23894;51.466;7.444;2022-10-16T06:43:05;4.60;;;1.50;;
38083;SDS011;23894;51.466;7.444;2022-10-16T06:45:06;5.50;;;1.63;;
38083;SDS011;23894;51.466;7.444;2022-10-16T06:47:07;5.13;;;1.48;;
38083;SDS011;23894;51.466;7.444;2022-10-16T06:49:09;3.70;;;1.50;;
38083;SDS011;23894;51.466;7.444;2022-10-16T06:53:11;5.03;;;1.60;;
38083;SDS011;23894;51.466;7.444;2022-10-16T06:57:13;3.90;;;1.83;;
38083;SDS011;23894;51.466;7.444;2022-10-16T07:01:15;4.40;;;1.42;;
38083;SDS011;23894;51.466;7.444;2022-10-16T07:03:16;6.50;;;1.35;;
38083;SDS011;23894;51.466;7.444;2022-10-16T07:05:17;4.68;;;1.60;;
38083;SDS011;23894;51.466;7.444;2022-10-16T07:09:19;6.28;;;1.73;;
38083;SDS011;23894;51.466;7.444;2022-10-16T07:13:21;4.07;;;1.63;;
38083;SDS011;23894;51.466;7.444;2022-10-16T07:15:22;5.43;;;1.50;;
38083;SDS011;23894;51.466;7.444;2022-10-16T07:17:24;3.90;;;1.38;;
38083;SDS011;23894;51.466;7.444;2022-10-16T07:19:25;5.13;;;1.50;;
38083;SDS011;23894;51.466;7.444;2022-10-16T07:23:28;4.60;;;1.55;;
38083;SDS011;23894;51.466;7.444;2022-10-16T07:25:29;4.15;;;1.58;;
38083;SDS011;23894;51.466;7.444;2022-10-16T07:29:31;4.80;;;1.60;;
38083;SDS011;23894;51.466;7.444;2022-10-16T07:33:33;4.22;;;1.60;;
38083;SDS011;23894;51.466;7.444;2022-10-16T07:35:35;4.50;;;1.60;;
38083;SDS011;23894;51.466;7.444;2022-10-16T07:37:36;4.32;;;1.50;;
38083;SDS011;23894;51.466;7.444;2022-10-16T07:41:37;4.38;;;1.67;;
38083;SDS011;23894;51.466;7.444;2022-10-16T07:45:46;4.35;;;1.63;;
38083;SDS011;23894;51.466;7.444;2022-10-16T07:47:48;4.40;;;1.70;;
38083;SDS011;23894;51.466;7.444;2022-10-16T07:49:49;7.82;;;1.88;;
38083;SDS011;23894;51.466;7.444;2022-10-16T07:53:52;3.95;;;1.58;;
38083;SDS011;23894;51.466;7.444;2022-10-16T07:55:59;8.90;;;1.63;;
38083;SDS011;23894;51.466;7.444;2022-10-16T07:58:01;7.35;;;1.75;;
38083;SDS011;23894;51.466;7.444;2022-10-16T08:00:02;4.40;;;1.55;;
38083;SDS011;23894;51.466;7.444;2022-10-16T08:02:03;3.65;;;1.60;;
38083;SDS011;23894;51.466;7.444;2022-10-16T08:04:04;5.70;;;1.70;;
38083;SDS011;23894;51.466;7.444;2022-10-16T08:06:06;3.42;;;1.50;;
38083;SDS011;23894;51.466;7.444;2022-10-16T08:08:10;4.32;;;1.65;;
38083;SDS011;23894;51.466;7.444;2022-10-16T08:10:15;5.30;;;1.60;;
38083;SDS011;23894;51.466;7.444;2022-10-16T08:12:17;4.25;;;1.50;;
38083;SDS011;23894;51.466;7.444;2022-10-16T08:16:19;3.28;;;1.50;;
38083;SDS011;23894;51.466;7.444;2022-10-16T08:18:20;5.72;;;1.77;;
38083;SDS011;23894;51.466;7.444;2022-10-16T08:22:22;4.47;;;1.70;;
38083;SDS011;23894;51.466;7.444;2022-10-16T08:26:24;4.15;;;1.50;;
38083;SDS011;23894;51.466;7.444;2022-10-16T08:28:26;6.18;;;2.00;;
38083;SDS011;23894;51.466;7.444;2022-10-16T08:32:28;4.43;;;1.52;;
38083;SDS011;23894;51.466;7.444;2022-10-16T08:36:29;4.30;;;1.50;;
38083;SDS011;23894;51.466;7.444;2022-10-16T08:40:32;4.53;;;1.52;;
38083;SDS011;23894;51.466;7.444;2022-10-16T08:43:08;4.55;;;1.30;;
38083;SDS011;23894;51.466;7.444;2022-10-16T08:51:04;6.30;;;1.48;;
38083;SDS011;23894;51.466;7.444;2022-10-16T08:53:06;6.40;;;1.70;;
38083;SDS011;23894;51.466;7.444;2022-10-16T08:55:19;5.03;;;1.30;;
38083;SDS011;23894;51.466;7.444;2022-10-16T08:57:25;4.57;;;1.10;;
38083;SDS011;23894;51.466;7.444;2022-10-16T08:59:27;5.35;;;1.50;;
38083;SDS011;23894;51.466;7.444;2022-10-16T09:12:00;4.65;;;1.27;;
38083;SDS011;23894;51.466;7.444;2022-10-16T09:16:35;3.85;;;1.13;;
38083;SDS011;23894;51.466;7.444;2022-10-16T09:24:40;5.43;;;1.20;;
38083;SDS011;23894;51.466;7.444;2022-10-16T09:28:42;3.38;;;1.10;;
38083;SDS011;23894;51.466;7.444;2022-10-16T09:32:45;5.95;;;1.20;;
38083;SDS011;23894;51.466;7.444;2022-10-16T09:34:51;3.60;;;1.20;;
38083;SDS011;23894;51.466;7.444;2022-10-16T09:36:53;6.25;;;1.17;;
38083;SDS011;23894;51.466;7.444;2022-10-16T09:39:08;5.95;;;1.55;;
38083;SDS011;23894;51.466;7.444;2022-10-16T09:45:30;7.00;;;1.37;;
38083;SDS011;23894;51.466;7.444;2022-10-16T09:49:32;2.85;;;0.95;;
38083;SDS011;23894;51.466;7.444;2022-10-16T09:53:39;4.75;;;1.00;;
38083;SDS011;23894;51.466;7.444;2022-10-16T09:55:48;4.53;;;1.30;;
38083;SDS011;23894;51.466;7.444;2022-10-16T09:57:50;4.32;;;1.20;;
38083;SDS011;23894;51.466;7.444;2022-10-16T09:59:52;5.28;;;1.30;;
38083;SDS011;23894;51.466;7.444;2022-10-16T10:01:54;4.07;;;1.30;;
38083;SDS011;23894;51.466;7.444;2022-10-16T10:03:56;5.75;;;1.30;;
38083;SDS011;23894;51.466;7.444;2022-10-16T10:06:06;5.15;;;1.33;;
38083;SDS011;23894;51.466;7.444;2022-10-16T10:08:16;5.78;;;1.30;;
38083;SDS011;23894;51.466;7.444;2022-10-16T10:10:22;4.28;;;1.27;;
38083;SDS011;23894;51.466;7.444;2022-10-16T10:12:25;4.47;;;1.13;;
38083;SDS011;23894;51.466;7.444;2022-10-16T10:14:39;6.45;;;1.30;;
38083;SDS011;23894;51.466;7.444;2022-10-16T10:16:43;3.45;;;1.10;;
38083;SDS011;23894;51.466;7.444;2022-10-16T10:20:45;5.18;;;1.20;;
38083;SDS011;23894;51.466;7.444;2022-10-16T10:22:46;2.90;;;1.10;;
38083;SDS011;23894;51.466;7.444;2022-10-16T10:26:57;5.40;;;1.30;;
38083;SDS011;23894;51.466;7.444;2022-10-16T10:29:06;6.72;;;1.55;;
38083;SDS011;23894;51.466;7.444;2022-10-16T10:35:53;4.80;;;1.13;;
38083;SDS011;23894;51.466;7.444;2022-10-16T10:42:44;4.32;;;1.40;;
38083;SDS011;23894;51.466;7.444;2022-10-16T10:44:53;5.15;;;1.33;;
38083;SDS011;23894;51.466;7.444;2022-10-16T10:53:00;3.75;;;1.23;;
38083;SDS011;23894;51.466;7.444;2022-10-16T10:55:13;6.25;;;1.40;;
38083;SDS011;23894;51.466;7.444;2022-10-16T10:57:29;3.70;;;1.00;;
38083;SDS011;23894;51.466;7.444;2022-10-16T11:02:00;4.72;;;1.30;;
38083;SDS011;23894;51.466;7.444;2022-10-16T11:06:20;4.68;;;1.17;;
38083;SDS011;23894;51.466;7.444;2022-10-16T11:08:29;4.90;;;1.20;;
38083;SDS011;23894;51.466;7.444;2022-10-16T11:10:38;5.25;;;1.00;;
38083;SDS011;23894;51.466;7.444;2022-10-16T11:12:44;9.85;;;1.38;;
38083;SDS011;23894;51.466;7.444;2022-10-16T11:14:53;3.45;;;1.00;;
38083;SDS011;23894;51.466;7.444;2022-10-16T11:17:12;5.28;;;1.17;;
38083;SDS011;23894;51.466;7.444;2022-10-16T11:19:20;3.72;;;0.88;;
38083;SDS011;23894;51.466;7.444;2022-10-16T11:21:22;3.00;;;0.90;;
38083;SDS011;23894;51.466;7.444;2022-10-16T11:23:25;3.83;;;0.80;;
38083;SDS011;23894;51.466;7.444;2022-10-16T11:25:28;3.58;;;0.88;;
38083;SDS011;23894;51.466;7.444;2022-10-16T11:27:40;3.78;;;0.90;;
38083;SDS011;23894;51.466;7.444;2022-10-16T11:30:15;4.43;;;1.10;;
38083;SDS011;23894;51.466;7.444;2022-10-16T11:32:19;4.07;;;1.02;;
38083;SDS011;23894;51.466;7.444;2022-10-16T11:34:29;4.93;;;1.10;;
38083;SDS011;23894;51.466;7.444;2022-10-16T11:36:33;4.57;;;1.00;;
38083;SDS011;23894;51.466;7.444;2022-10-16T11:42:41;5.95;;;1.05;;
38083;SDS011;23894;51.466;7.444;2022-10-16T11:45:00;4.18;;;1.00;;
38083;SDS011;23894;51.466;7.444;2022-10-16T11:47:09;3.53;;;0.90;;
38083;SDS011;23894;51.466;7.444;2022-10-16T11:49:24;4.57;;;1.50;;
38083;SDS011;23894;51.466;7.444;2022-10-16T11:53:49;4.40;;;0.90;;
38083;SDS011;23894;51.466;7.444;2022-10-16T11:56:16;4.63;;;1.10;;
38083;SDS011;23894;51.466;7.444;2022-10-16T11:58:26;4.07;;;1.13;;
38083;SDS011;23894;51.466;7.444;2022-10-16T12:00:40;3.25;;;0.90;;
38083;SDS011;23894;51.466;7.444;2022-10-16T12:07:17;2.58;;;0.85;;
38083;SDS011;23894;51.466;7.444;2022-10-16T12:15:33;3.05;;;0.90;;
38083;SDS011;23894;51.466;7.444;2022-10-16T12:17:37;3.15;;;0.70;;
38083;SDS011;23894;51.466;7.444;2022-10-16T12:19:38;2.35;;;0.77;;
38083;SDS011;23894;51.466;7.444;2022-10-16T12:21:39;4.88;;;0.80;;
38083;SDS011;23894;51.466;7.444;2022-10-16T12:23:47;3.72;;;0.80;;
38083;SDS011;23894;51.466;7.444;2022-10-16T12:25:56;2.95;;;0.75;;
38083;SDS011;23894;51.466;7.444;2022-10-16T12:27:59;7.22;;;1.30;;
38083;SDS011;23894;51.466;7.444;2022-10-16T12:30:14;3.15;;;0.75;;
38083;SDS011;23894;51.466;7.444;2022-10-16T12:32:25;4.07;;;0.83;;
38083;SDS011;23894;51.466;7.444;2022-10-16T12:34:39;2.85;;;0.73;;
38083;SDS011;23894;51.466;7.444;2022-10-16T12:36:43;3.20;;;0.82;;
38083;SDS011;23894;51.466;7.444;2022-10-16T12:38:48;2.70;;;0.65;;
38083;SDS011;23894;51.466;7.444;2022-10-16T12:40:55;4.38;;;1.17;;
38083;SDS011;23894;51.466;7.444;2022-10-16T12:43:10;5.57;;;0.80;;
38083;SDS011;23894;51.466;7.444;2022-10-16T12:45:23;2.80;;;0.50;;
38083;SDS011;23894;51.466;7.444;2022-10-16T12:49:31;3.58;;;0.82;;
38083;SDS011;23894;51.466;7.444;2022-10-16T12:51:37;3.67;;;0.70;;
38083;SDS011;23894;51.466;7.444;2022-10-16T12:53:38;7.15;;;1.10;;
38083;SDS011;23894;51.466;7.444;2022-10-16T12:58:16;2.83;;;0.70;;
38083;SDS011;23894;51.466;7.444;2022-10-16T13:02:49;4.40;;;0.93;;
38083;SDS011;23894;51.466;7.444;2022-10-16T13:07:25;3.28;;;0.80;;
38083;SDS011;23894;51.466;7.444;2022-10-16T13:10:06;2.90;;;0.85;;
38083;SDS011;23894;51.466;7.444;2022-10-16T13:14:54;3.22;;;0.70;;
38083;SDS011;23894;51.466;7.444;2022-10-16T13:17:19;4.03;;;0.70;;
38083;SDS011;23894;51.466;7.444;2022-10-16T13:22:22;5.72;;;0.70;;
38083;SDS011;23894;51.466;7.444;2022-10-16T13:26:52;3.15;;;0.80;;
38083;SDS011;23894;51.466;7.444;2022-10-16T13:29:18;3.65;;;0.77;;
38083;SDS011;23894;51.466;7.444;2022-10-16T13:31:21;3.95;;;0.70;;
38083;SDS011;23894;51.466;7.444;2022-10-16T13:33:31;2.58;;;0.75;;
38083;SDS011;23894;51.466;7.444;2022-10-16T13:35:37;6.45;;;1.00;;
38083;SDS011;23894;51.466;7.444;2022-10-16T13:37:46;3.35;;;0.75;;
38083;SDS011;23894;51.466;7.444;2022-10-16T13:39:47;2.83;;;0.60;;
38083;SDS011;23894;51.466;7.444;2022-10-16T13:44:02;2.55;;;0.70;;
38083;SDS011;23894;51.466;7.444;2022-10-16T13:46:04;3.35;;;0.90;;
38083;SDS011;23894;51.466;7.444;2022-10-16T13:48:16;3.25;;;0.80;;
38083;SDS011;23894;51.466;7.444;2022-10-16T13:50:17;3.17;;;0.70;;
38083;SDS011;23894;51.466;7.444;2022-10-16T13:52:19;2.42;;;0.70;;
38083;SDS011;23894;51.466;7.444;2022-10-16T13:54:21;4.57;;;0.80;;
38083;SDS011;23894;51.466;7.444;2022-10-16T13:56:22;3.65;;;0.80;;
38083;SDS011;23894;51.466;7.444;2022-10-16T13:58:27;4.50;;;0.90;;
38083;SDS011;23894;51.466;7.444;2022-10-16T14:00:28;3.72;;;0.70;;
38083;SDS011;23894;51.466;7.444;2022-10-16T14:02:36;3.30;;;0.80;;
38083;SDS011;23894;51.466;7.444;2022-10-16T14:04:40;3.85;;;0.77;;
38083;SDS011;23894;51.466;7.444;2022-10-16T14:06:42;4.18;;;1.00;;
38083;SDS011;23894;51.466;7.444;2022-10-16T14:08:45;3.00;;;0.90;;
38083;SDS011;23894;51.466;7.444;2022-10-16T14:10:49;2.92;;;0.70;;
38083;SDS011;23894;51.466;7.444;2022-10-16T14:12:58;4.93;;;1.10;;
38083;SDS011;23894;51.466;7.444;2022-10-16T14:14:59;3.28;;;0.80;;
38083;SDS011;23894;51.466;7.444;2022-10-16T14:17:02;3.38;;;0.80;;
38083;SDS011;23894;51.466;7.444;2022-10-16T14:19:04;5.30;;;0.85;;
38083;SDS011;23894;51.466;7.444;2022-10-16T14:21:07;3.17;;;1.10;;
38083;SDS011;23894;51.466;7.444;2022-10-16T14:25:26;3.80;;;1.30;;
38083;SDS011;23894;51.466;7.444;2022-10-16T14:27:29;4.90;;;1.35;;
38083;SDS011;23894;51.466;7.444;2022-10-16T14:29:30;3.80;;;0.95;;
38083;SDS011;23894;51.466;7.444;2022-10-16T14:31:32;3.53;;;1.13;;
38083;SDS011;23894;51.466;7.444;2022-10-16T14:33:35;4.72;;;1.13;;
38083;SDS011;23894;51.466;7.444;2022-10-16T14:35:37;4.75;;;0.80;;
38083;SDS011;23894;51.466;7.444;2022-10-16T14:37:39;4.13;;;0.85;;
38083;SDS011;23894;51.466;7.444;2022-10-16T14:39:40;3.10;;;0.80;;
38083;SDS011;23894;51.466;7.444;2022-10-16T14:41:41;3.00;;;0.80;;
38083;SDS011;23894;51.466;7.444;2022-10-16T14:43:44;4.47;;;1.00;;
38083;SDS011;23894;51.466;7.444;2022-10-16T14:45:49;4.63;;;1.13;;
38083;SDS011;23894;51.466;7.444;2022-10-16T14:47:55;4.22;;;1.00;;
38083;SDS011;23894;51.466;7.444;2022-10-16T14:49:56;3.90;;;1.00;;
38083;SDS011;23894;51.466;7.444;2022-10-16T14:51:59;4.90;;;1.02;;
38083;SDS011;23894;51.466;7.444;2022-10-16T14:54:00;3.92;;;1.00;;
38083;SDS011;23894;51.466;7.444;2022-10-16T14:56:08;4.35;;;1.10;;
38083;SDS011;23894;51.466;7.444;2022-10-16T14:58:15;3.00;;;0.90;;
38083;SDS011;23894;51.466;7.444;2022-10-16T15:00:21;3.72;;;1.10;;
38083;SDS011;23894;51.466;7.444;2022-10-16T15:02:25;4.18;;;1.08;;
38083;SDS011;23894;51.466;7.444;2022-10-16T15:04:27;8.05;;;1.20;;
38083;SDS011;23894;51.466;7.444;2022-10-16T15:06:29;4.78;;;1.10;;
38083;SDS011;23894;51.466;7.444;2022-10-16T15:08:30;6.35;;;1.13;;
38083;SDS011;23894;51.466;7.444;2022-10-16T15:10:31;5.00;;;1.02;;
38083;SDS011;23894;51.466;7.444;2022-10-16T15:12:33;5.97;;;1.10;;
38083;SDS011;23894;51.466;7.444;2022-10-16T15:14:34;3.45;;;1.08;;
38083;SDS011;23894;51.466;7.444;2022-10-16T15:16:35;4.18;;;1.27;;
38083;SDS011;23894;51.466;7.444;2022-10-16T15:18:36;6.07;;;1.10;;
38083;SDS011;23894;51.466;7.444;2022-10-16T15:20:38;3.72;;;1.08;;
38083;SDS011;23894;51.466;7.444;2022-10-16T15:22:39;3.80;;;1.30;;
38083;SDS011;23894;51.466;7.444;2022-10-16T15:24:40;5.47;;;1.30;;
38083;SDS011;23894;51.466;7.444;2022-10-16T15:26:41;3.40;;;1.00;;
38083;SDS011;23894;51.466;7.444;2022-10-16T15:28:42;4.53;;;1.00;;
38083;SDS011;23894;51.466;7.444;2022-10-16T15:32:47;4.30;;;1.00;;
38083;SDS011;23894;51.466;7.444;2022-10-16T15:36:49;3.55;;;1.05;;
38083;SDS011;23894;51.466;7.444;2022-10-16T15:38:50;2.95;;;0.95;;
38083;SDS011;23894;51.466;7.444;2022-10-16T15:40:51;4.35;;;1.20;;
38083;SDS011;23894;51.466;7.444;2022-10-16T15:42:52;5.03;;;1.02;;
38083;SDS011;23894;51.466;7.444;2022-10-16T15:46:54;4.63;;;1.30;;
38083;SDS011;23894;51.466;7.444;2022-10-16T15:48:57;5.18;;;1.33;;
38083;SDS011;23894;51.466;7.444;2022-10-16T15:50:59;4.80;;;1.08;;
38083;SDS011;23894;51.466;7.444;2022-10-16T15:53:00;7.32;;;1.40;;
38083;SDS011;23894;51.466;7.444;2022-10-16T15:55:01;4.80;;;1.20;;
38083;SDS011;23894;51.466;7.444;2022-10-16T15:57:03;5.00;;;1.40;;
38083;SDS011;23894;51.466;7.444;2022-10-16T16:01:05;7.00;;;1.45;;
38083;SDS011;23894;51.466;7.444;2022-10-16T16:03:08;4.45;;;1.20;;
38083;SDS011;23894;51.466;7.444;2022-10-16T16:07:10;4.85;;;1.35;;
38083;SDS011;23894;51.466;7.444;2022-10-16T16:09:12;5.53;;;1.52;;
38083;SDS011;23894;51.466;7.444;2022-10-16T16:11:14;6.60;;;1.15;;
38083;SDS011;23894;51.466;7.444;2022-10-16T16:13:15;4.10;;;1.23;;
38083;SDS011;23894;51.466;7.444;2022-10-16T16:17:17;4.53;;;1.30;;
38083;SDS011;23894;51.466;7.444;2022-10-16T16:19:18;6.63;;;1.65;;
38083;SDS011;23894;51.466;7.444;2022-10-16T16:21:20;3.67;;;1.20;;
38083;SDS011;23894;51.466;7.444;2022-10-16T16:25:22;7.07;;;1.70;;
38083;SDS011;23894;51.466;7.444;2022-10-16T16:27:23;6.68;;;1.42;;
38083;SDS011;23894;51.466;7.444;2022-10-16T16:29:25;6.40;;;1.65;;
38083;SDS011;23894;51.466;7.444;2022-10-16T16:33:27;4.40;;;1.50;;
38083;SDS011;23894;51.466;7.444;2022-10-16T16:37:29;4.15;;;1.50;;
38083;SDS011;23894;51.466;7.444;2022-10-16T16:41:31;4.18;;;1.60;;
38083;SDS011;23894;51.466;7.444;2022-10-16T16:43:32;5.30;;;1.70;;